Time;durP1;ratioP1;P1;durP2;ratioP2;P2;SDS_P1;SDS_P2;PMS_P1;PMS_P2;Temp;Humidity;BMP_temperature;BMP_pressure;BME280_temperature;BME280_humidity;BME280_pressure;Samples;Min_cycle;Max_cycle;Signal;HPM_P1;HPM_P2
2021/05/21 00:02:25;;;;;;;;;0.00;0.00;;;;;22.61;34.87;100879.31;5094969;27;45380;-59
2021/05/21 00:04:50;;;;;;;;;0.75;0.00;;;;;22.61;35.02;100879.31;5095190;27;45565;-59
2021/05/21 00:07:17;;;;;;;;;0.25;0.25;;;;;22.60;34.80;100875.84;5095407;27;45406;-58
2021/05/21 00:09:42;;;;;;;;;0.00;0.00;;;;;22.59;34.90;100866.13;5094851;27;46404;-58
2021/05/21 00:12:08;;;;;;;;;0.00;0.00;;;;;22.60;35.10;100870.53;5093872;27;45641;-59
2021/05/21 00:14:35;;;;;;;;;1.00;1.00;;;;;22.59;35.09;100868.81;5094923;27;45757;-59
2021/05/21 00:17:01;;;;;;;;;2.00;0.00;;;;;22.60;34.78;100872.31;5094933;27;45395;-59
2021/05/21 00:19:26;;;;;;;;;0.00;0.00;;;;;22.59;35.20;100874.13;5094810;27;47143;-59
2021/05/21 00:21:51;;;;;;;;;0.00;0.00;;;;;22.59;35.08;100855.50;5094072;27;45699;-59
2021/05/21 00:24:17;;;;;;;;;0.00;0.00;;;;;22.60;34.94;100859.00;5094271;27;45820;-59
2021/05/21 00:26:43;;;;;;;;;0.00;0.00;;;;;22.59;34.80;100860.00;5095073;27;45465;-58
2021/05/21 00:29:08;;;;;;;;;0.00;0.00;;;;;22.59;34.95;100846.69;5080265;27;53196;-59
2021/05/21 00:31:34;;;;;;;;;0.00;0.00;;;;;22.58;35.08;100847.66;5060600;28;45538;-59
2021/05/21 00:34:00;;;;;;;;;0.00;0.00;;;;;22.56;34.91;100843.28;5072982;28;45441;-58
2021/05/21 00:36:26;;;;;;;;;0.00;0.00;;;;;22.52;35.16;100827.66;5074445;28;45657;-59
2021/05/21 00:38:51;;;;;;;;;0.00;0.00;;;;;22.53;35.06;100845.34;5074033;28;46041;-59
2021/05/21 00:41:21;;;;;;;;;0.00;0.00;;;;;22.50;34.90;100851.75;5077870;27;45510;-58
2021/05/21 00:43:46;;;;;;;;;0.00;0.00;;;;;22.52;34.84;100854.28;5094492;27;45714;-59
2021/05/21 00:46:12;;;;;;;;;0.75;0.00;;;;;22.51;34.85;100852.59;5093892;27;45761;-59
2021/05/21 00:48:38;;;;;;;;;0.25;0.00;;;;;22.51;34.84;100861.41;5094268;27;46012;-59
2021/05/21 00:51:04;;;;;;;;;0.00;0.00;;;;;22.49;34.85;100844.72;5093962;27;45761;-59
2021/05/21 00:53:30;;;;;;;;;0.75;0.00;;;;;22.48;35.09;100847.53;5094444;27;45713;-58
2021/05/21 00:55:59;;;;;;;;;0.00;0.00;;;;;22.47;35.02;100848.50;5093198;27;45429;-59
2021/05/21 00:58:26;;;;;;;;;0.00;0.00;;;;;22.46;35.18;100844.16;5094066;27;47005;-59
2021/05/21 01:00:54;;;;;;;;;0.00;0.00;;;;;22.48;35.21;100836.88;5093904;27;45630;-58
2021/05/21 01:03:19;;;;;;;;;0.00;0.00;;;;;22.49;34.95;100846.53;5094004;27;45496;-58
2021/05/21 01:05:46;;;;;;;;;0.00;0.00;;;;;22.48;35.12;100845.72;5094557;27;45429;-59
2021/05/21 01:08:14;;;;;;;;;0.00;0.00;;;;;22.46;34.82;100837.00;5092427;27;48390;-59
2021/05/21 01:10:39;;;;;;;;;0.00;0.00;;;;;22.46;34.89;100850.28;5094050;27;45455;-58
2021/05/21 01:13:05;;;;;;;;;0.00;0.00;;;;;22.40;35.15;100834.84;5093788;27;45584;-59
2021/05/21 01:15:40;;;;;;;;;0.00;0.00;;;;;22.43;35.16;100842.59;5094220;27;45623;-58
2021/05/21 01:18:07;;;;;;;;;0.00;0.00;;;;;22.43;35.08;100839.91;5092758;27;47050;-59
2021/05/21 01:20:33;;;;;;;;;1.00;0.00;;;;;22.40;35.20;100846.34;5093820;27;45527;-58
2021/05/21 01:22:59;;;;;;;;;1.50;0.00;;;;;22.39;34.96;100851.78;5093745;27;45364;-59
2021/05/21 01:25:25;;;;;;;;;0.00;0.00;;;;;22.39;34.98;100841.13;5093969;27;45787;-59
2021/05/21 01:27:51;;;;;;;;;1.75;0.00;;;;;22.39;34.98;100849.97;5093304;27;46107;-59
2021/05/21 01:30:18;;;;;;;;;0.00;0.00;;;;;22.38;35.18;100834.13;5093146;27;45465;-59
2021/05/21 01:32:46;;;;;;;;;2.00;1.00;;;;;22.37;35.05;100841.25;5093698;27;45525;-59
2021/05/21 01:35:14;;;;;;;;;0.25;0.00;;;;;22.38;34.97;100836.78;5093838;27;45676;-58
2021/05/21 01:37:42;;;;;;;;;0.00;0.00;;;;;22.35;35.23;100834.38;5093504;27;46304;-58
2021/05/21 01:40:10;;;;;;;;;0.25;0.00;;;;;22.36;35.07;100834.25;5092514;27;45512;-58
2021/05/21 01:42:36;;;;;;;;;0.00;0.00;;;;;22.31;34.73;100820.47;5093922;27;45485;-58
2021/05/21 01:45:02;;;;;;;;;0.00;0.00;;;;;22.36;35.14;100833.38;5093948;27;45420;-59
2021/05/21 01:47:28;;;;;;;;;0.00;0.00;;;;;22.36;35.31;100833.38;5093556;27;47255;-59
2021/05/21 01:49:53;;;;;;;;;0.00;0.00;;;;;22.35;35.23;100823.72;5092319;27;45394;-60
2021/05/21 01:52:19;;;;;;;;;0.00;0.00;;;;;22.35;35.14;100824.59;5082328;27;47337;-58
2021/05/21 01:54:44;;;;;;;;;0.00;0.00;;;;;22.33;35.23;100823.03;5073083;28;45831;-58
2021/05/21 01:57:10;;;;;;;;;0.00;0.00;;;;;22.35;34.88;100805.97;5072414;28;46991;-59
2021/05/21 01:59:36;;;;;;;;;2.00;0.00;;;;;22.35;35.01;100807.75;5079952;27;45785;-59
2021/05/21 02:02:02;;;;;;;;;1.50;0.00;;;;;22.35;35.13;100816.59;5092218;27;45409;-58
2021/05/21 02:04:34;;;;;;;;;0.00;0.00;;;;;22.36;35.12;100804.13;5093505;27;45455;-59
2021/05/21 02:07:00;;;;;;;;;0.75;0.00;;;;;22.36;35.17;100806.78;5093235;27;45762;-59
2021/05/21 02:09:28;;;;;;;;;0.25;0.00;;;;;22.36;34.93;100794.34;5093198;27;45541;-59
2021/05/21 02:11:54;;;;;;;;;2.25;0.75;;;;;22.35;35.09;100797.97;5092416;27;45717;-59
2021/05/21 02:14:19;;;;;;;;;0.00;0.00;;;;;22.37;34.94;100795.19;5093690;27;45457;-58
2021/05/21 02:16:48;;;;;;;;;1.50;0.00;;;;;22.37;34.98;100806.66;5096696;27;47146;-58
2021/05/21 02:19:14;;;;;;;;;0.00;0.00;;;;;22.38;35.27;100804.84;5096696;27;45655;-58
2021/05/21 02:21:42;;;;;;;;;0.00;0.00;;;;;22.39;34.84;100804.75;5096899;27;45446;-59
2021/05/21 02:24:08;;;;;;;;;0.00;0.00;;;;;22.38;35.08;100804.84;5095710;27;45484;-58
2021/05/21 02:26:35;;;;;;;;;0.00;0.00;;;;;22.41;35.03;100793.94;5096544;27;46158;-59
2021/05/21 02:29:01;;;;;;;;;1.00;0.00;;;;;22.41;35.10;100799.28;5096474;27;45502;-58
2021/05/21 02:31:26;;;;;;;;;0.00;0.00;;;;;22.42;35.39;100800.97;5096499;27;45727;-58
2021/05/21 02:33:51;;;;;;;;;1.50;0.00;;;;;22.45;35.24;100805.22;5095730;27;45748;-60
2021/05/21 02:36:17;;;;;;;;;0.75;0.00;;;;;22.43;35.16;100810.66;5095881;27;52529;-59
2021/05/21 02:38:42;;;;;;;;;0.00;0.00;;;;;22.46;35.12;100822.84;5096431;27;45461;-59
2021/05/21 02:41:08;;;;;;;;;3.00;0.00;;;;;22.45;35.10;100818.50;5096485;27;45648;-58
2021/05/21 02:43:34;;;;;;;;;0.00;0.00;;;;;22.48;34.94;100828.88;5096526;27;45356;-58
2021/05/21 02:45:59;;;;;;;;;0.25;0.25;;;;;22.48;35.22;100815.56;5095212;27;47120;-58
2021/05/21 02:48:25;;;;;;;;;2.00;0.50;;;;;22.49;35.29;100815.47;5096203;27;45406;-59
2021/05/21 02:50:50;;;;;;;;;0.00;0.00;;;;;22.50;34.76;100818.97;5096001;27;45979;-59
2021/05/21 02:53:16;;;;;;;;;0.00;0.00;;;;;22.42;34.92;100817.78;5077181;27;45555;-58
2021/05/21 02:55:42;;;;;;;;;0.00;0.00;;;;;22.50;34.75;100827.78;5075819;28;46205;-59
2021/05/21 02:58:07;;;;;;;;;0.00;0.00;;;;;22.50;34.83;100833.13;5074502;28;45833;-58
2021/05/21 03:00:33;;;;;;;;;0.00;0.00;;;;;22.51;34.99;100825.97;5090965;27;45688;-59
2021/05/21 03:02:58;;;;;;;;;1.75;0.00;;;;;22.51;34.80;100816.16;5095919;27;45726;-59
2021/05/21 03:05:24;;;;;;;;;0.75;0.75;;;;;22.52;34.87;100809.03;5102079;27;47093;-59
2021/05/21 03:07:55;;;;;;;;;1.00;1.00;;;;;22.52;34.83;100801.06;5116144;27;45704;-59
2021/05/21 03:10:24;;;;;;;;;0.75;0.75;;;;;22.53;35.12;100805.44;5097185;27;45588;-58
2021/05/21 03:12:49;;;;;;;;;1.25;0.75;;;;;22.52;34.97;100787.75;5096164;27;45512;-59
2021/05/21 03:15:15;;;;;;;;;1.00;0.00;;;;;22.52;34.92;100775.28;5095718;27;46214;-59
2021/05/21 03:17:42;;;;;;;;;1.00;0.25;;;;;22.46;34.50;100753.66;5095645;27;45741;-58
2021/05/21 03:20:08;;;;;;;;;0.00;0.00;;;;;22.53;34.33;100786.81;5094866;27;45561;-58
2021/05/21 03:22:34;;;;;;;;;1.00;0.00;;;;;22.47;34.65;100764.19;5095968;27;45762;-59
2021/05/21 03:25:03;;;;;;;;;1.00;0.00;;;;;22.51;34.91;100778.06;5095294;27;47136;-58
2021/05/21 03:27:32;;;;;;;;;0.00;0.00;;;;;22.47;34.65;100774.84;5095904;27;45691;-58
2021/05/21 03:29:59;;;;;;;;;0.75;0.75;;;;;22.53;34.89;100784.13;5092480;27;45770;-59
2021/05/21 03:32:25;;;;;;;;;0.25;0.00;;;;;22.51;34.67;100786.88;5096004;27;45542;-59
2021/05/21 03:34:51;;;;;;;;;1.00;0.00;;;;;22.48;34.27;100779.19;5095341;27;45864;-59
2021/05/21 03:37:17;;;;;;;;;1.50;0.00;;;;;22.52;34.77;100785.09;5095387;27;45685;-58
2021/05/21 03:39:43;;;;;;;;;0.00;0.00;;;;;22.51;34.76;100767.44;5095709;27;45433;-58
2021/05/21 03:42:09;;;;;;;;;1.75;0.75;;;;;22.50;34.47;100765.75;5094823;27;45826;-58
2021/05/21 03:44:35;;;;;;;;;0.00;0.00;;;;;22.52;34.67;100785.09;5095301;27;47000;-58
2021/05/21 03:47:02;;;;;;;;;2.00;0.00;;;;;22.53;34.33;100786.81;5095177;27;45684;-59
2021/05/21 03:49:32;;;;;;;;;0.00;0.00;;;;;22.52;34.61;100796.59;5095138;27;45609;-59
2021/05/21 03:51:58;;;;;;;;;0.25;0.25;;;;;22.54;34.42;100773.38;5094389;27;45814;-59
2021/05/21 03:54:23;;;;;;;;;3.00;0.00;;;;;22.54;34.70;100765.38;5095105;27;46220;-58
2021/05/21 03:56:50;;;;;;;;;0.00;0.00;;;;;22.53;34.68;100769.03;5094901;27;45668;-59
2021/05/21 03:59:17;;;;;;;;;0.75;0.75;;;;;22.53;34.55;100785.00;5095280;27;45734;-58
2021/05/21 04:01:43;;;;;;;;;0.00;0.00;;;;;22.54;34.69;100783.16;5095255;27;45372;-59
2021/05/21 04:04:09;;;;;;;;;0.00;0.00;;;;;22.54;34.53;100780.50;5094039;27;47097;-59
2021/05/21 04:06:35;;;;;;;;;1.25;1.25;;;;;22.53;34.81;100769.03;5076673;27;46909;-58
2021/05/21 04:09:05;;;;;;;;;0.00;0.00;;;;;22.54;34.44;100764.53;5094811;27;45393;-59
2021/05/21 04:11:34;;;;;;;;;0.00;0.00;;;;;22.54;34.53;100783.16;5095294;27;45794;-58
2021/05/21 04:14:00;;;;;;;;;2.00;0.00;;;;;22.53;34.54;100771.69;5093692;27;46389;-59
2021/05/21 04:16:26;;;;;;;;;2.00;0.00;;;;;22.54;34.27;100764.53;5094916;27;45631;-59
2021/05/21 04:18:51;;;;;;;;;0.00;0.00;;;;;22.53;34.48;100760.19;5092497;27;45629;-58
2021/05/21 04:21:18;;;;;;;;;0.00;0.00;;;;;22.49;34.71;100756.91;5074780;28;45866;-58
2021/05/21 04:23:44;;;;;;;;;0.00;0.00;;;;;22.52;34.56;100762.00;5074245;28;47397;-59
2021/05/21 04:26:09;;;;;;;;;2.00;0.00;;;;;22.52;34.41;100747.81;5090710;27;45447;-59
2021/05/21 04:28:35;;;;;;;;;0.75;0.75;;;;;22.48;34.61;100752.56;5094916;27;45602;-58
2021/05/21 04:31:01;;;;;;;;;1.00;1.00;;;;;22.52;34.82;100753.16;5094517;27;45504;-59
2021/05/21 04:33:26;;;;;;;;;0.75;0.00;;;;;22.54;34.34;100759.22;5094322;27;47091;-58
2021/05/21 04:35:52;;;;;;;;;0.00;0.00;;;;;22.52;34.55;100761.13;5094065;27;45560;-60
2021/05/21 04:38:17;;;;;;;;;2.00;0.00;;;;;22.53;34.55;100750.41;5093441;27;45778;-58
2021/05/21 04:40:43;;;;;;;;;0.00;0.00;;;;;22.52;34.57;100742.50;5094942;27;45700;-59
2021/05/21 04:43:09;;;;;;;;;0.00;0.00;;;;;22.52;34.49;100748.69;5094357;27;46031;-59
2021/05/21 04:45:34;;;;;;;;;0.75;0.00;;;;;22.53;34.47;100746.88;5094796;27;45774;-59
2021/05/21 04:48:00;;;;;;;;;1.50;0.00;;;;;22.53;34.75;100738.88;5093260;27;45511;-59
2021/05/21 04:50:25;;;;;;;;;0.75;0.50;;;;;22.53;34.33;100742.41;5094396;27;45426;-59
2021/05/21 04:52:51;;;;;;;;;0.00;0.00;;;;;22.53;34.55;100739.75;5093791;27;47144;-59
2021/05/21 04:55:16;;;;;;;;;0.00;0.00;;;;;22.52;34.48;100738.03;5094217;27;45662;-58
2021/05/21 04:57:43;;;;;;;;;1.50;1.00;;;;;22.53;34.71;100734.44;5094055;27;45958;-59
2021/05/21 05:00:09;;;;;;;;;1.00;1.00;;;;;22.54;34.97;100736.09;5093165;27;45597;-58
2021/05/21 05:02:35;;;;;;;;;2.00;0.75;;;;;22.53;34.50;100730.91;5093949;27;46194;-59
2021/05/21 05:05:00;;;;;;;;;0.75;0.75;;;;;22.50;34.62;100721.34;5093912;27;45777;-59
2021/05/21 05:07:26;;;;;;;;;0.00;0.00;;;;;22.54;34.71;100738.78;5099491;27;45516;-58
2021/05/21 05:09:51;;;;;;;;;0.00;0.00;;;;;22.55;34.71;100734.31;5083122;27;45497;-59
2021/05/21 05:12:17;;;;;;;;;1.75;0.75;;;;;22.55;34.30;100736.97;5072971;28;46375;-58
2021/05/21 05:14:42;;;;;;;;;0.00;0.00;;;;;22.56;34.74;100736.81;5073577;28;45443;-59
2021/05/21 05:17:08;;;;;;;;;2.50;0.75;;;;;22.57;34.63;100732.34;5073488;28;45366;-58
2021/05/21 05:19:33;;;;;;;;;1.25;0.00;;;;;22.58;34.66;100726.03;5073679;28;45523;-58
2021/05/21 05:21:59;;;;;;;;;1.25;0.00;;;;;22.60;34.74;100720.59;5072312;28;46142;-59
2021/05/21 05:24:26;;;;;;;;;0.25;0.25;;;;;22.55;34.61;100699.72;5076128;27;45485;-59
2021/05/21 05:26:53;;;;;;;;;0.50;0.00;;;;;22.60;34.58;100705.47;5093670;27;45557;-59
2021/05/21 05:29:19;;;;;;;;;1.00;0.00;;;;;22.56;34.33;100696.88;5093912;27;45475;-58
2021/05/21 05:31:47;;;;;;;;;1.00;1.00;;;;;22.59;34.25;100703.78;5093347;27;46191;-58
2021/05/21 05:34:14;;;;;;;;;0.00;0.00;;;;;22.64;34.13;100709.53;5092460;27;45455;-58
2021/05/21 05:36:40;;;;;;;;;0.00;0.00;;;;;22.65;34.21;100713.94;5093737;27;45421;-58
2021/05/21 05:39:06;;;;;;;;;1.00;0.75;;;;;22.65;34.33;100715.72;5093530;27;45470;-59
2021/05/21 05:41:32;;;;;;;;;0.75;0.50;;;;;22.65;34.39;100729.03;5083336;27;46987;-59
2021/05/21 05:43:57;;;;;;;;;0.00;0.00;;;;;22.66;34.27;100725.41;5072029;28;45663;-59
2021/05/21 05:46:23;;;;;;;;;1.25;0.25;;;;;22.67;34.37;100727.06;5073362;28;45474;-59
2021/05/21 05:48:50;;;;;;;;;0.00;0.00;;;;;22.67;34.41;100721.75;5053989;28;45539;-59
2021/05/21 05:51:15;;;;;;;;;3.00;0.25;;;;;22.67;34.24;100730.59;5072424;28;46397;-58
2021/05/21 05:53:41;;;;;;;;;0.75;0.75;;;;;22.67;34.27;100716.44;5072888;28;45562;-58
2021/05/21 05:56:07;;;;;;;;;3.00;1.00;;;;;22.68;34.13;100726.13;5071817;28;45632;-59
2021/05/21 05:58:32;;;;;;;;;0.00;0.00;;;;;22.68;34.49;100718.13;5072913;28;45496;-58
2021/05/21 06:00:59;;;;;;;;;0.75;0.75;;;;;22.67;34.55;100717.28;5072534;28;47297;-58
2021/05/21 06:03:27;;;;;;;;;1.00;0.00;;;;;22.68;34.09;100732.28;5072798;28;45704;-59
2021/05/21 06:05:53;;;;;;;;;1.00;0.00;;;;;22.70;34.46;100724.16;5071965;28;45616;-59
2021/05/21 06:08:19;;;;;;;;;1.00;0.00;;;;;22.70;34.26;100708.19;5072362;28;51127;-59
2021/05/21 06:10:45;;;;;;;;;3.00;0.50;;;;;22.69;34.15;100715.31;5072528;28;47394;-59
2021/05/21 06:13:11;;;;;;;;;1.00;1.00;;;;;22.70;34.32;100713.53;5072272;28;45653;-59
2021/05/21 06:15:38;;;;;;;;;0.25;0.25;;;;;22.69;33.88;100709.19;5073018;28;45691;-59
2021/05/21 06:18:06;;;;;;;;;0.00;0.00;;;;;22.70;34.16;100716.19;5104724;27;45525;-58
2021/05/21 06:20:33;;;;;;;;;1.00;0.75;;;;;22.69;34.69;100715.31;5113547;27;46212;-58
2021/05/21 06:23:02;;;;;;;;;0.75;0.00;;;;;22.71;34.42;100719.69;5113366;27;45754;-59
2021/05/21 06:28:15;;;;;;;;;1.00;1.00;;;;;22.71;34.32;100723.19;5092041;27;45793;-58
2021/05/21 06:30:40;;;;;;;;;1.00;0.00;;;;;22.70;34.54;100724.16;5083409;27;46171;-58
2021/05/21 06:33:06;;;;;;;;;0.00;0.00;;;;;22.71;34.52;100719.69;5071894;28;45710;-58
2021/05/21 06:35:34;;;;;;;;;0.00;0.00;;;;;22.71;34.10;100725.84;5072514;28;45575;-59
2021/05/21 06:38:00;;;;;;;;;2.00;1.00;;;;;22.71;34.16;100717.88;5071340;28;45837;-59
2021/05/21 06:40:26;;;;;;;;;0.00;0.00;;;;;22.71;34.27;100727.69;5072462;28;47072;-59
2021/05/21 06:42:52;;;;;;;;;1.50;1.00;;;;;22.71;34.22;100730.34;5072272;28;45619;-58
2021/05/21 06:45:17;;;;;;;;;0.00;0.00;;;;;22.71;34.51;100730.34;5072397;28;45422;-59
2021/05/21 06:47:43;;;;;;;;;0.00;0.00;;;;;22.72;34.29;100724.03;5072559;28;45411;-58
2021/05/21 06:50:10;;;;;;;;;0.25;0.25;;;;;22.73;33.95;100739.91;5070841;28;46292;-58
2021/05/21 06:52:36;;;;;;;;;0.25;0.25;;;;;22.73;34.59;100739.03;5072186;28;46124;-58
2021/05/21 06:55:03;;;;;;;;;2.75;1.00;;;;;22.74;34.42;100740.72;5072311;28;45487;-59
2021/05/21 06:57:29;;;;;;;;;1.75;1.50;;;;;22.74;34.22;100741.56;5072175;28;45893;-59
2021/05/21 06:59:57;;;;;;;;;0.75;0.75;;;;;22.70;34.21;100729.50;5070844;28;46268;-60
2021/05/21 07:02:25;;;;;;;;;1.00;0.00;;;;;22.76;34.39;100738.78;5075473;28;45737;-58
2021/05/21 07:04:51;;;;;;;;;1.25;0.75;;;;;22.76;34.29;100736.94;5075250;27;45422;-59
2021/05/21 07:07:16;;;;;;;;;0.75;0.75;;;;;22.76;34.08;100726.31;5075465;28;45839;-60
2021/05/21 07:09:42;;;;;;;;;2.75;1.75;;;;;22.73;33.84;100731.06;5075129;28;47350;-58
2021/05/21 07:12:08;;;;;;;;;1.25;1.00;;;;;22.55;34.09;100732.47;5074129;28;45480;-60
2021/05/21 07:14:33;;;;;;;;;4.00;1.00;;;;;22.32;34.12;100725.56;5077006;27;45491;-61
2021/05/21 07:16:59;;;;;;;;;3.00;1.00;;;;;22.13;34.60;100737.69;5095600;27;45495;-61
2021/05/21 07:19:28;;;;;;;;;3.25;1.00;;;;;21.94;34.69;100752.50;5092802;27;46040;-60
2021/05/21 07:21:53;;;;;;;;;1.75;1.00;;;;;21.75;34.40;100734.53;5092679;27;45741;-62
2021/05/21 07:24:19;;;;;;;;;3.50;2.00;;;;;21.56;35.27;100748.41;5095468;27;45545;-59
2021/05/21 07:26:44;;;;;;;;;2.00;0.75;;;;;21.44;35.09;100739.59;5082615;27;45575;-59
2021/05/21 07:29:28;;;;;;;;;3.00;1.75;;;;;21.43;35.26;100748.53;5075871;27;46088;-59
2021/05/21 07:31:54;;;;;;;;;2.00;1.25;;;;;21.45;35.57;100736.81;5082725;27;45771;-59
2021/05/21 07:34:20;;;;;;;;;2.25;0.50;;;;;21.55;35.54;100749.38;5095514;27;45513;-59
2021/05/21 07:36:46;;;;;;;;;4.00;0.50;;;;;21.63;35.36;100739.81;5095805;27;45386;-58
2021/05/21 07:39:14;;;;;;;;;6.50;1.50;;;;;21.76;35.51;100729.09;5094128;27;47234;-59
2021/05/21 07:41:39;;;;;;;;;1.00;1.00;;;;;21.89;35.55;100728.94;5092339;27;45815;-58
2021/05/21 07:44:05;;;;;;;;;3.75;1.75;;;;;22.02;35.32;100707.50;5078214;27;45793;-59
2021/05/21 07:46:30;;;;;;;;;2.50;1.25;;;;;22.16;35.17;100726.81;5095276;27;45537;-59
2021/05/21 07:48:57;;;;;;;;;4.00;2.00;;;;;22.29;35.05;100729.31;5087627;27;46058;-59
2021/05/21 07:51:22;;;;;;;;;2.75;0.50;;;;;22.42;34.92;100721.97;5094807;27;45473;-59
2021/05/21 07:53:48;;;;;;;;;3.75;0.75;;;;;22.56;34.91;100712.03;5094346;27;47749;-60
2021/05/21 07:56:14;;;;;;;;;2.25;1.00;;;;;22.67;34.79;100721.75;5092116;27;45717;-59
2021/05/21 07:58:41;;;;;;;;;1.25;0.25;;;;;22.78;34.88;100720.84;5092401;27;46221;-59
2021/05/21 08:01:07;;;;;;;;;2.75;1.75;;;;;22.90;34.74;100727.78;5087301;27;45583;-59
2021/05/21 08:03:32;;;;;;;;;0.25;0.25;;;;;22.99;34.20;100727.97;5091574;27;46188;-60
2021/05/21 08:06:00;;;;;;;;;2.25;0.00;;;;;23.11;34.12;100724.25;5091523;27;45775;-61
2021/05/21 08:08:27;;;;;;;;;0.25;0.25;;;;;23.19;34.25;100707.59;5094600;27;45577;-59
2021/05/21 08:10:58;;;;;;;;;0.00;0.00;;;;;23.22;34.06;100708.16;5094558;27;45606;-60
2021/05/21 08:13:28;;;;;;;;;3.00;0.75;;;;;23.34;33.45;100708.94;5092963;27;45848;-59
2021/05/21 08:15:53;;;;;;;;;0.00;0.00;;;;;23.42;33.58;100710.94;5093864;27;45789;-60
2021/05/21 08:18:19;;;;;;;;;2.00;0.75;;;;;23.45;33.48;100704.50;5094234;27;45847;-58
2021/05/21 08:20:45;;;;;;;;;0.50;0.50;;;;;23.52;33.66;100702.13;5080585;27;45499;-59
2021/05/21 08:23:15;;;;;;;;;1.50;0.00;;;;;23.58;33.15;100713.09;5093259;27;45718;-60
2021/05/21 08:25:41;;;;;;;;;1.50;1.00;;;;;23.60;32.93;100696.94;5094333;27;45551;-60
2021/05/21 08:28:07;;;;;;;;;0.25;0.25;;;;;23.65;33.16;100710.72;5093183;27;46363;-59
2021/05/21 08:30:33;;;;;;;;;0.75;0.75;;;;;23.69;32.70;100708.63;5093671;27;45518;-59
2021/05/21 08:32:58;;;;;;;;;2.25;0.75;;;;;23.73;33.18;100710.03;5093127;27;46596;-59
2021/05/21 08:35:25;;;;;;;;;1.50;0.75;;;;;23.75;32.84;100703.56;5093787;27;45714;-59
2021/05/21 08:37:52;;;;;;;;;1.00;1.00;;;;;23.77;33.18;100708.78;5093472;27;45514;-60
2021/05/21 08:40:22;;;;;;;;;1.00;1.00;;;;;23.74;33.12;100714.41;5093666;27;45762;-59
2021/05/21 08:42:57;;;;;;;;;0.75;0.75;;;;;23.76;32.94;100720.44;5093297;27;45915;-60
2021/05/21 08:45:24;;;;;;;;;0.00;0.00;;;;;23.75;32.59;100735.56;5093411;27;45629;-59
2021/05/21 08:47:50;;;;;;;;;1.75;0.75;;;;;23.75;32.63;100718.75;5093400;27;46921;-59
2021/05/21 08:50:16;;;;;;;;;1.25;0.25;;;;;23.70;32.99;100720.97;5083947;27;45478;-59
2021/05/21 08:52:42;;;;;;;;;0.25;0.25;;;;;23.69;32.58;100711.31;5086435;27;45561;-59
2021/05/21 08:55:09;;;;;;;;;1.75;0.00;;;;;23.69;32.86;100716.63;5093985;27;45752;-60
2021/05/21 08:57:34;;;;;;;;;1.75;1.00;;;;;23.66;32.70;100714.22;5093385;27;46285;-60
2021/05/21 09:00:00;;;;;;;;;0.00;0.00;;;;;23.62;32.36;100722.50;5092285;27;45802;-61
2021/05/21 09:02:29;;;;;;;;;3.50;1.00;;;;;23.59;32.27;100719.25;5087041;27;45605;-61
2021/05/21 09:04:59;;;;;;;;;2.75;1.00;;;;;23.53;32.67;100698.50;5089442;27;45556;-59
2021/05/21 09:07:33;;;;;;;;;1.75;1.75;;;;;23.52;32.30;100710.13;5088486;27;46164;-58
2021/05/21 09:10:15;;;;;;;;;1.00;0.75;;;;;23.47;32.27;100698.06;5085994;27;45947;-58
2021/05/21 09:12:43;;;;;;;;;2.00;1.00;;;;;23.45;32.87;100700.03;5090726;27;45651;-59
2021/05/21 09:15:23;;;;;;;;;1.00;1.00;;;;;23.42;32.90;100705.63;5089370;27;45498;-58
2021/05/21 09:18:00;;;;;;;;;0.75;0.75;;;;;23.41;32.59;100719.06;5092206;27;45813;-59
2021/05/21 09:20:28;;;;;;;;;3.00;1.00;;;;;23.40;32.82;100728.91;5080777;27;45388;-59
2021/05/21 09:23:12;;;;;;;;;2.25;0.25;;;;;23.38;32.82;100708.69;5093462;27;45680;-58
2021/05/21 09:25:44;;;;;;;;;0.00;0.00;;;;;23.35;32.80;100721.28;5091333;27;45516;-60
2021/05/21 09:28:43;;;;;;;;;0.25;0.00;;;;;23.33;32.62;100711.75;5089352;27;46880;-59
2021/05/21 09:31:12;;;;;;;;;1.75;0.25;;;;;23.32;32.38;100702.06;5092899;27;45782;-60
2021/05/21 09:33:46;;;;;;;;;1.00;0.00;;;;;23.31;32.20;100708.34;5093162;27;45643;-60
2021/05/21 09:36:12;;;;;;;;;0.00;0.00;;;;;23.30;32.21;100710.16;5078182;27;46496;-59
2021/05/21 09:38:46;;;;;;;;;0.00;0.00;;;;;23.29;32.51;100700.47;5090719;27;47230;-58
2021/05/21 09:41:11;;;;;;;;;0.00;0.00;;;;;23.28;32.31;100690.81;5093161;27;45758;-61
2021/05/21 09:43:37;;;;;;;;;0.50;0.50;;;;;23.28;32.67;100688.16;5091129;27;45809;-59
2021/05/21 09:46:10;;;;;;;;;0.25;0.25;;;;;23.26;32.33;100703.44;5091960;27;45484;-60
2021/05/21 09:48:36;;;;;;;;;1.25;0.00;;;;;23.27;32.30;100701.59;5092693;27;46126;-59
2021/05/21 09:51:04;;;;;;;;;1.00;0.00;;;;;23.25;32.45;100696.41;5091891;27;45406;-60
2021/05/21 09:53:33;;;;;;;;;0.75;0.75;;;;;23.25;32.47;100688.41;5092370;27;45537;-59
2021/05/21 09:56:05;;;;;;;;;1.00;1.00;;;;;23.24;32.13;100694.72;5091080;27;45679;-60
2021/05/21 09:58:31;;;;;;;;;0.50;0.00;;;;;23.23;32.20;100695.69;5091904;27;45577;-59
2021/05/21 10:01:18;;;;;;;;;1.50;0.00;;;;;23.23;32.28;100693.03;5092671;27;45533;-59
2021/05/21 10:03:54;;;;;;;;;0.50;0.50;;;;;23.20;32.63;100683.50;5081341;27;45807;-60
2021/05/21 10:06:22;;;;;;;;;1.00;0.00;;;;;23.19;32.27;100678.28;5092783;27;45509;-60
2021/05/21 10:08:58;;;;;;;;;0.25;0.25;;;;;23.16;32.84;100662.59;5089392;27;46186;-61
2021/05/21 10:11:25;;;;;;;;;0.00;0.00;;;;;23.16;32.71;100671.41;5092213;27;45448;-60
2021/05/21 10:13:51;;;;;;;;;3.00;0.00;;;;;23.16;32.22;100691.91;5092416;27;45530;-61
2021/05/21 10:16:19;;;;;;;;;0.00;0.00;;;;;23.15;32.67;100691.03;5092702;27;45752;-59
2021/05/21 10:18:52;;;;;;;;;0.25;0.00;;;;;23.11;32.31;100657.66;5091369;27;46395;-60
2021/05/21 10:21:23;;;;;;;;;1.00;0.00;;;;;23.13;32.33;100679.69;5092187;27;45890;-60
2021/05/21 10:23:59;;;;;;;;;0.00;0.00;;;;;23.11;32.18;100668.31;5091140;27;45692;-61
2021/05/21 10:26:34;;;;;;;;;1.00;1.00;;;;;23.06;32.56;100654.53;5091648;27;45434;-60
2021/05/21 10:29:04;;;;;;;;;0.00;0.00;;;;;23.07;32.28;100667.72;5091800;27;46271;-60
2021/05/21 10:31:32;;;;;;;;;2.00;0.75;;;;;23.08;32.32;100672.09;5092196;27;45690;-59
2021/05/21 10:34:15;;;;;;;;;1.75;0.00;;;;;23.06;31.96;100662.53;5091043;27;45540;-60
2021/05/21 10:36:51;;;;;;;;;3.00;0.00;;;;;23.03;32.07;100682.28;5094220;27;45798;-59
2021/05/21 10:39:23;;;;;;;;;2.00;0.00;;;;;23.02;32.04;100664.63;5095621;27;46073;-61
2021/05/21 10:41:59;;;;;;;;;2.00;0.00;;;;;23.00;32.35;100650.63;5095639;27;45613;-61
2021/05/21 10:44:40;;;;;;;;;1.25;0.00;;;;;22.98;32.03;100647.22;5095620;27;45472;-59
2021/05/21 10:47:23;;;;;;;;;0.75;0.75;;;;;22.95;32.29;100659.00;5094810;27;45796;-59
2021/05/21 10:49:52;;;;;;;;;0.00;0.00;;;;;22.95;32.34;100660.81;5095407;27;46487;-61
2021/05/21 10:52:19;;;;;;;;;0.00;0.00;;;;;22.93;32.38;100671.59;5094933;27;45458;-60
2021/05/21 10:54:49;;;;;;;;;0.00;0.00;;;;;22.93;32.28;100673.41;5079656;27;45533;-59
2021/05/21 10:57:26;;;;;;;;;0.00;0.00;;;;;22.89;32.28;100645.34;5093758;27;45466;-59
2021/05/21 10:59:54;;;;;;;;;0.75;0.00;;;;;22.89;32.34;100669.31;5094725;27;45592;-61
2021/05/21 11:02:22;;;;;;;;;1.25;0.00;;;;;22.87;32.06;100655.31;5095370;27;45551;-60
2021/05/21 11:04:49;;;;;;;;;3.75;0.00;;;;;22.85;32.41;100659.94;5095106;27;45737;-60
2021/05/21 11:07:43;;;;;;;;;0.00;0.00;;;;;22.83;32.68;100654.75;5095654;27;45646;-61
2021/05/21 11:10:25;;;;;;;;;0.00;0.00;;;;;22.81;32.57;100641.56;5091969;27;45741;-61
2021/05/21 11:12:58;;;;;;;;;2.25;0.00;;;;;22.76;32.45;100646.44;5092930;27;45525;-60
2021/05/21 11:15:33;;;;;;;;;4.00;0.25;;;;;22.79;32.26;100640.00;5082448;27;45870;-60
2021/05/21 11:18:10;;;;;;;;;1.25;0.00;;;;;22.77;32.25;100629.47;5092847;27;45712;-62
2021/05/21 11:21:10;;;;;;;;;1.00;0.75;;;;;22.76;32.37;100641.09;5092780;27;46692;-61
2021/05/21 11:23:39;;;;;;;;;2.00;0.75;;;;;22.75;32.31;100646.56;5094829;27;45490;-61
2021/05/21 11:26:14;;;;;;;;;0.25;0.00;;;;;22.74;32.24;100669.69;5094034;27;45457;-61
2021/05/21 11:28:44;;;;;;;;;3.00;0.00;;;;;22.73;32.40;100646.72;5095497;27;45628;-61
2021/05/21 11:31:15;;;;;;;;;0.75;0.75;;;;;22.72;31.94;100662.81;5093887;27;47219;-61